BERRYESSA (BER)

Elevation: 456' · PUTAH CR basin · Operator: US Bureau of Reclamation


Station comments:

07/01/2016Reservoir change sensor started again 07/01/2016. Previously ended 05/17/1999.


Provisional data, subject to change.
Query executed Sunday at 2:34:01   clock

Select a sensor type for a plot of data.
Note: Reservoir Flows are daily averages.

Earlier

Date RES ELE    STORAGE    RES CHG    OUTFLOW    INFLOW    PPT INC   
 FEET   AF   AF   CFS   CFS   INCHES  
07/02/2016 406.16 969465 -1701 663 -65 0.00
07/03/2016 406.05 967765 -1700 602 -120 0.00
07/04/2016 405.96 966375 -1390 551 -15 0.00
07/05/2016 405.87 964986 -1389 585 5 0.00
07/06/2016 405.77 963444 -1542 594 -58 0.00
07/07/2016 405.68 962056 -1388 578 -7 0.00
07/08/2016 405.59 960670 -1386 579 0 0.00
07/09/2016 405.49 959130 -1540 575 -71 0.00
07/10/2016 405.40 957746 -1384 550 -14 0.00
07/11/2016 405.33 956670 -1076 533 87 0.00
07/12/2016 405.22 954979 -1691 527 -201 0.00
07/13/2016 405.14 953751 -1228 562 58 0.00
07/14/2016 405.06 952523 -1228 570 85 0.00
07/15/2016 404.96 950989 -1534 605 -15 0.00
07/16/2016 404.87 949609 -1380 605 48 0.00
07/17/2016 404.76 947924 -1685 566 -150 0.00
07/18/2016 404.67 946547 -1377 585 10 0.00
07/19/2016 404.58 945170 -1377 579 -5 0.00
07/20/2016 404.50 943947 -1223 562 64 0.00
07/21/2016 404.40 942419 -1528 556 -90 0.00
07/22/2016 404.33 941351 -1068 570 165 0.00
07/23/2016 404.23 939825 -1526 586 -69 0.00
07/24/2016 404.14 938453 -1372 586 27 0.00
07/25/2016 -- -- -- -- -- --
07/26/2016 403.96 935658 -- -- -- --
07/27/2016 403.88 934439 -1219 -- -- --
07/28/2016 403.81 933377 -1062 -- -- --
07/29/2016 403.71 931859 -1518 -- -- --
07/30/2016 -- -- -- -- -- --
07/31/2016 -- -- -- -- -- --

Later | Latest

Warning! This data is preliminary and subject to revision.

Show BER Map | Plot BER Data | 1 Month BER Data | Real-Time BER Data | BER Info